UDTRI weather

Aviosuperficie Ultralight Friuli
Trivignano (UD), Friuli-Venezia Giulia, Italy

Public forecast

Using degrees Celsius for public forecast. Weather courtesy of forecast.io.

Closest aviation weather report (METAR) to Aviosuperficie Ultralight Friuli

Closest report is Trieste–Friuli Venezia Giulia Airport, 7.7 nm (14.3 km) SE. Retrieved 2020/08/05 13:20 UTC (16 minutes ago):

LIPQ 051320Z AUTO 10008KT 050V130 9999 BKN056/// 26/15 Q1013

Closest aviation forecast (TAF) to Aviosuperficie Ultralight Friuli

Closest forecast is Trieste–Friuli Venezia Giulia Airport, 7.7 nm (14.3 km) SE. Retrieved 2020/08/05 12:20 UTC (1 hour ago):

TAF LIPQ 051100Z 0512/0612 07010KT 9999 SCT060